createdAt,value
2022-12-28T00:01:53.522Z,101464.53
2022-12-28T00:04:22.717Z,101466.28
2022-12-28T00:06:52.439Z,101467.25
2022-12-28T00:09:20.555Z,101465.41
2022-12-28T00:11:48.435Z,101463.56
2022-12-28T00:14:16.272Z,101466.19
2022-12-28T00:16:45.239Z,101467.03
2022-12-28T00:19:15.208Z,101463.34
2022-12-28T00:21:45.598Z,101464.13
2022-12-28T00:24:19.369Z,101459.56
2022-12-28T00:26:47.445Z,101465.97
2022-12-28T00:29:15.547Z,101464.06
2022-12-28T00:31:44.777Z,101447.72
2022-12-28T00:34:13.057Z,101447.66
2022-12-28T00:37:08.253Z,101434.94
2022-12-28T00:39:31.623Z,101413.16
2022-12-28T00:42:00.387Z,101407.63
2022-12-28T00:44:28.448Z,101413.94
2022-12-28T00:46:56.572Z,101404.03
2022-12-28T00:49:24.405Z,101412.09
2022-12-28T00:51:54.037Z,101398.50
2022-12-28T00:54:21.942Z,101392.16
2022-12-28T00:56:51.070Z,101379.38
2022-12-28T00:59:19.004Z,101373.13
2022-12-28T01:01:46.856Z,101365.84
2022-12-28T01:04:15.091Z,101355.94
2022-12-28T01:06:42.950Z,101351.38
2022-12-28T01:09:10.763Z,101340.50
2022-12-28T01:11:38.599Z,101345.94
2022-12-28T01:14:07.837Z,101357.59
2022-12-28T01:16:37.413Z,101352.16
2022-12-28T01:19:08.256Z,101344.88
2022-12-28T01:21:37.721Z,101343.03
2022-12-28T01:24:07.858Z,101339.44
2022-12-28T01:26:35.966Z,101324.97
2022-12-28T01:29:04.547Z,101305.06
2022-12-28T01:31:36.639Z,101314.97
2022-12-28T01:34:04.542Z,101316.81
2022-12-28T01:36:35.298Z,101316.81
2022-12-28T01:39:05.296Z,101309.53
2022-12-28T01:41:37.338Z,101307.69
2022-12-28T01:44:40.942Z,101297.88
2022-12-28T01:47:14.665Z,101295.28
2022-12-28T01:49:47.343Z,101289.63
2022-12-28T01:52:21.115Z,101290.59
2022-12-28T01:54:55.031Z,101285.94
2022-12-28T01:57:28.111Z,101278.56
2022-12-28T02:00:01.725Z,101276.72
2022-12-28T02:02:44.476Z,101272.16
2022-12-28T02:05:14.134Z,101266.72
2022-12-28T02:07:49.826Z,101276.41
2022-12-28T02:10:41.639Z,101259.22
2022-12-28T02:13:07.535Z,101266.41
2022-12-28T02:15:35.686Z,101260.88
2022-12-28T02:18:05.244Z,101248.81
2022-12-28T02:20:40.460Z,101245.97
2022-12-28T02:23:39.224Z,101244.38
2022-12-28T02:26:31.814Z,101246.84
2022-12-28T02:29:17.513Z,101237.81
2022-12-28T02:31:53.828Z,101237.72
2022-12-28T02:34:27.635Z,101237.66
2022-12-28T02:37:02.495Z,101219.50
2022-12-28T02:39:36.586Z,101223.00
2022-12-28T02:42:06.094Z,101221.25
2022-12-28T02:44:53.748Z,101213.84
2022-12-28T02:47:39.073Z,101212.13
2022-12-28T02:50:09.844Z,101211.13
2022-12-28T02:52:58.655Z,101198.19
2022-12-28T02:55:57.015Z,101195.47
2022-12-28T02:58:52.623Z,101190.03
2022-12-28T03:01:37.412Z,101178.19
2022-12-28T03:04:13.919Z,101176.34
2022-12-28T03:07:05.144Z,101164.50
2022-12-28T03:09:40.399Z,101165.38
2022-12-28T03:12:15.697Z,101167.13
2022-12-28T03:14:50.034Z,101153.38
2022-12-28T03:17:39.613Z,101151.53
2022-12-28T03:20:31.954Z,101145.13
2022-12-28T03:23:20.589Z,101137.94
2022-12-28T03:26:07.505Z,101122.47
2022-12-28T03:29:02.361Z,101119.66
2022-12-28T03:31:33.984Z,101119.56
2022-12-28T03:34:09.417Z,101120.34
2022-12-28T03:36:49.113Z,101119.34
2022-12-28T03:39:25.894Z,101124.56
2022-12-28T03:42:17.403Z,101120.88
2022-12-28T03:44:55.446Z,101109.03
2022-12-28T03:47:26.855Z,101114.38
2022-12-28T03:49:56.386Z,101096.94
2022-12-28T03:52:24.311Z,101105.00
2022-12-28T03:54:52.791Z,101099.47
2022-12-28T03:57:23.749Z,101091.97
2022-12-28T03:59:52.045Z,101098.38
2022-12-28T04:02:20.222Z,101094.56
2022-12-28T04:04:48.712Z,101087.16
2022-12-28T04:07:18.010Z,101092.50
2022-12-28T04:09:45.993Z,101083.38
2022-12-28T04:12:14.604Z,101082.38
2022-12-28T04:15:00.821Z,101075.09
2022-12-28T04:17:30.607Z,101086.63
2022-12-28T04:19:58.454Z,101078.47
2022-12-28T04:22:27.685Z,101079.13
2022-12-28T04:24:56.254Z,101070.09
2022-12-28T04:27:24.604Z,101072.72
2022-12-28T04:29:55.776Z,101063.56
2022-12-28T04:32:25.183Z,101062.56
2022-12-28T04:34:52.982Z,101064.19
2022-12-28T04:37:20.920Z,101069.66
2022-12-28T04:39:55.477Z,101052.34
2022-12-28T04:42:25.732Z,101057.69
2022-12-28T04:44:53.596Z,101042.22
2022-12-28T04:47:21.698Z,101047.56
2022-12-28T04:49:50.432Z,101039.25
2022-12-28T04:52:18.376Z,101031.97
2022-12-28T04:54:46.184Z,101024.66
2022-12-28T04:57:15.481Z,101028.06
2022-12-28T04:59:43.293Z,101024.47
2022-12-28T05:02:11.498Z,101026.19
2022-12-28T05:04:39.419Z,101024.34
2022-12-28T05:07:07.357Z,101023.25
2022-12-28T05:09:35.145Z,101024.09
2022-12-28T05:12:02.987Z,101033.06
2022-12-28T05:14:36.766Z,101028.38
2022-12-28T05:17:05.326Z,101021.06
2022-12-28T05:19:33.121Z,101027.28
2022-12-28T05:22:01.108Z,101026.19
2022-12-28T05:24:28.985Z,101021.50
2022-12-28T05:26:56.841Z,101007.78
2022-12-28T05:29:24.629Z,101019.44
2022-12-28T05:31:53.856Z,101015.50
2022-12-28T05:34:21.669Z,101007.31
2022-12-28T05:36:49.529Z,101018.00
2022-12-28T05:39:17.704Z,101010.56
2022-12-28T05:41:45.548Z,101009.59
2022-12-28T05:44:13.328Z,100998.47
2022-12-28T05:46:41.211Z,101004.59
2022-12-28T05:49:10.916Z,100980.69
2022-12-28T05:51:40.059Z,100996.06
2022-12-28T05:54:08.134Z,100995.84
2022-12-28T05:56:36.063Z,100988.41
2022-12-28T05:59:05.681Z,100991.78
2022-12-28T06:01:36.457Z,100990.69
2022-12-28T06:04:06.688Z,100986.72
2022-12-28T06:06:36.932Z,100972.03
2022-12-28T06:09:05.544Z,100980.97
2022-12-28T06:11:33.623Z,100964.47
2022-12-28T06:14:03.679Z,100966.97
2022-12-28T06:16:33.727Z,100969.47
2022-12-28T06:19:05.664Z,100960.19
2022-12-28T06:21:36.720Z,100962.78
2022-12-28T06:24:06.511Z,100957.16
2022-12-28T06:26:37.213Z,100957.91
2022-12-28T06:29:06.068Z,100949.59
2022-12-28T06:31:35.623Z,100944.03
2022-12-28T06:34:04.928Z,100938.47
2022-12-28T06:36:36.236Z,100944.69
2022-12-28T06:39:06.197Z,100952.75
2022-12-28T06:41:34.432Z,100947.28
2022-12-28T06:44:02.800Z,100951.63
2022-12-28T06:46:31.570Z,100964.16
2022-12-28T06:48:59.704Z,100955.00
2022-12-28T06:51:29.653Z,100950.41
2022-12-28T06:53:59.167Z,100954.75
2022-12-28T06:56:29.195Z,100957.34
2022-12-28T06:59:02.531Z,100965.53
2022-12-28T07:01:33.173Z,100956.38
2022-12-28T07:04:02.823Z,100955.38
2022-12-28T07:06:31.576Z,100962.59
2022-12-28T07:09:02.069Z,100958.88
2022-12-28T07:11:30.047Z,100965.31
2022-12-28T07:13:57.926Z,100961.59
2022-12-28T07:16:27.209Z,100953.41
2022-12-28T07:18:55.147Z,100963.47
2022-12-28T07:21:25.169Z,100959.63
2022-12-28T07:23:55.039Z,100970.53
2022-12-28T07:26:27.161Z,100947.84
2022-12-28T07:28:57.699Z,100966.06
2022-12-28T07:31:28.396Z,100960.47
2022-12-28T07:33:58.099Z,100962.22
2022-12-28T07:36:27.261Z,100962.22
2022-12-28T07:38:55.103Z,100959.50
2022-12-28T07:41:26.341Z,100952.06
2022-12-28T07:43:54.499Z,100943.00
2022-12-28T07:46:24.521Z,100948.34
2022-12-28T07:48:53.162Z,100950.22
2022-12-28T07:51:23.871Z,100945.50
2022-12-28T07:53:53.146Z,100947.38
2022-12-28T07:56:22.513Z,100949.97
2022-12-28T07:58:53.241Z,100941.66
2022-12-28T08:01:23.264Z,100940.81
2022-12-28T08:03:55.324Z,100941.53
2022-12-28T08:06:24.381Z,100934.50
2022-12-28T08:08:55.275Z,100940.66
2022-12-28T08:11:25.315Z,100939.56
2022-12-28T08:13:56.374Z,100941.31
2022-12-28T08:16:26.801Z,100933.13
2022-12-28T08:18:55.116Z,100938.59
2022-12-28T08:24:15.460Z,100937.50
2022-12-28T08:26:44.236Z,100940.22
2022-12-28T08:29:15.727Z,100936.34
2022-12-28T08:31:44.909Z,100930.91
2022-12-28T08:34:16.464Z,100932.53
2022-12-28T08:36:44.381Z,100929.81
2022-12-28T08:39:12.979Z,100932.41
2022-12-28T08:41:40.814Z,100934.16
2022-12-28T08:44:08.578Z,100939.50
2022-12-28T08:46:38.117Z,100932.91
2022-12-28T08:49:06.939Z,100929.31
2022-12-28T08:51:36.783Z,100932.69
2022-12-28T08:54:04.911Z,100937.28
2022-12-28T08:56:35.202Z,100939.78
2022-12-28T08:59:04.117Z,100939.78
2022-12-28T09:01:38.938Z,100937.75
2022-12-28T09:04:15.377Z,100938.53
2022-12-28T09:06:43.529Z,100925.00
2022-12-28T09:09:14.125Z,100932.94
2022-12-28T09:11:42.509Z,100933.81
2022-12-28T09:14:15.692Z,100929.13
2022-12-28T09:16:48.486Z,100936.44
2022-12-28T09:19:17.758Z,100948.81
2022-12-28T09:21:49.149Z,100937.03
2022-12-28T09:24:17.546Z,100927.00
2022-12-28T09:26:45.595Z,100941.41
2022-12-28T09:29:14.381Z,100933.09
2022-12-28T09:31:43.965Z,100932.94
2022-12-28T09:37:02.852Z,100936.44
2022-12-28T09:39:30.892Z,100929.88
2022-12-28T09:42:01.130Z,100930.63
2022-12-28T09:44:47.523Z,100933.09
2022-12-28T09:47:25.476Z,100934.81
2022-12-28T09:50:06.302Z,100931.97
2022-12-28T09:52:38.067Z,100940.06
2022-12-28T09:55:12.109Z,100931.75
2022-12-28T09:57:42.970Z,100930.75
2022-12-28T10:00:17.990Z,100940.53
2022-12-28T10:02:50.044Z,100928.63
2022-12-28T10:05:18.473Z,100926.03
2022-12-28T10:07:47.672Z,100919.34
2022-12-28T10:10:18.532Z,100924.69
2022-12-28T10:12:47.523Z,100920.09
2022-12-28T10:15:16.931Z,100918.06
2022-12-28T10:17:46.048Z,100917.09
2022-12-28T10:20:19.330Z,100911.28
2022-12-28T10:22:53.179Z,100923.06
2022-12-28T10:25:23.811Z,100914.59
2022-12-28T10:27:52.112Z,100904.56
2022-12-28T10:30:23.921Z,100917.09
2022-12-28T10:32:59.676Z,100906.94
2022-12-28T10:35:34.376Z,100914.97
2022-12-28T10:38:07.424Z,100900.31
2022-12-28T10:40:39.392Z,100899.22
2022-12-28T10:43:11.013Z,100891.03
2022-12-28T10:45:41.724Z,100888.94
2022-12-28T10:48:15.581Z,100887.81
2022-12-28T10:50:52.023Z,100887.56
2022-12-28T10:53:26.867Z,100878.38
2022-12-28T10:56:17.473Z,100883.72
2022-12-28T10:58:47.152Z,100872.63
2022-12-28T11:01:19.157Z,100865.19
2022-12-28T11:03:59.088Z,100855.13
2022-12-28T11:06:28.581Z,100863.09
2022-12-28T11:09:14.457Z,100851.88
2022-12-28T11:11:43.429Z,100838.34
2022-12-28T11:14:18.938Z,100857.97
2022-12-28T11:16:46.802Z,100858.97
2022-12-28T11:19:14.640Z,100853.38
2022-12-28T11:21:44.056Z,100850.38
2022-12-28T11:24:16.613Z,100853.84
2022-12-28T11:26:46.477Z,100838.59
2022-12-28T11:29:16.950Z,100843.78
2022-12-28T11:31:50.186Z,100846.41
2022-12-28T11:34:21.962Z,100834.47
2022-12-28T11:36:50.609Z,100843.53
2022-12-28T11:39:44.850Z,100826.00
2022-12-28T11:42:38.909Z,100820.69
2022-12-28T11:45:02.773Z,100834.19
2022-12-28T11:47:35.575Z,100843.13
2022-12-28T11:50:22.043Z,100842.59
2022-12-28T11:52:51.986Z,100831.63
2022-12-28T11:56:06.788Z,100815.22
2022-12-28T11:59:03.511Z,100832.22
2022-12-28T12:01:45.353Z,100823.88
2022-12-28T12:04:43.671Z,100816.09
2022-12-28T12:07:47.178Z,100818.41
2022-12-28T12:10:34.044Z,100814.81
2022-12-28T12:13:20.049Z,100809.09
2022-12-28T12:15:49.420Z,100801.91
2022-12-28T12:18:21.365Z,100810.84
2022-12-28T12:21:00.340Z,100801.59
2022-12-28T12:23:41.998Z,100803.34
2022-12-28T12:26:28.589Z,100789.84
2022-12-28T12:29:03.711Z,100787.94
2022-12-28T12:31:36.642Z,100794.28
2022-12-28T12:34:07.538Z,100794.63
2022-12-28T12:36:55.457Z,100785.38
2022-12-28T12:39:39.534Z,100782.34
2022-12-28T12:42:16.567Z,100779.63
2022-12-28T12:44:55.916Z,100781.34
2022-12-28T12:47:58.368Z,100785.09
2022-12-28T12:50:45.905Z,100785.94
2022-12-28T12:53:29.215Z,100772.28
2022-12-28T12:56:05.982Z,100778.63
2022-12-28T12:58:48.399Z,100761.34
2022-12-28T13:01:30.845Z,100761.47
2022-12-28T13:04:06.547Z,100731.41
2022-12-28T13:06:36.844Z,100718.50
2022-12-28T13:09:07.543Z,100715.75
2022-12-28T13:11:39.953Z,100714.75
2022-12-28T13:14:14.102Z,100710.41
2022-12-28T13:16:49.040Z,100716.50
2022-12-28T13:19:20.887Z,100711.03
2022-12-28T13:21:50.101Z,100700.22
2022-12-28T13:24:22.956Z,100711.03
2022-12-28T13:26:50.846Z,100707.94
2022-12-28T13:29:20.860Z,100703.22
2022-12-28T13:31:51.429Z,100707.56
2022-12-28T13:34:22.975Z,100696.50
2022-12-28T13:36:54.426Z,100683.81
2022-12-28T13:39:22.536Z,100673.88
2022-12-28T13:41:52.647Z,100678.34
2022-12-28T13:44:41.682Z,100667.28
2022-12-28T13:47:17.047Z,100663.69
2022-12-28T13:49:53.157Z,100643.69
2022-12-28T13:52:26.596Z,100646.41
2022-12-28T13:54:58.264Z,100637.34
2022-12-28T14:00:18.240Z,100671.16
2022-12-28T14:02:49.123Z,100659.97
2022-12-28T14:05:20.008Z,100668.28
2022-12-28T14:07:49.102Z,100665.56
2022-12-28T14:10:17.926Z,100659.22
2022-12-28T14:12:47.103Z,100652.75
2022-12-28T14:15:16.302Z,100647.41
2022-12-28T14:17:47.588Z,100649.16
2022-12-28T14:20:16.916Z,100631.75
2022-12-28T14:22:45.368Z,100622.81
2022-12-28T14:25:16.155Z,100628.16
2022-12-28T14:27:48.061Z,100632.63
2022-12-28T14:30:24.902Z,100629.03
2022-12-28T14:32:53.441Z,100616.34
2022-12-28T14:35:25.777Z,100624.28
2022-12-28T14:37:55.940Z,100609.88
2022-12-28T14:40:29.249Z,100604.16
2022-12-28T14:42:58.815Z,100616.09
2022-12-28T14:46:04.981Z,100605.00
2022-12-28T14:48:37.748Z,100590.63
2022-12-28T14:51:25.375Z,100586.16
2022-12-28T14:54:17.423Z,100581.69
2022-12-28T14:56:49.027Z,100574.34
2022-12-28T14:59:21.169Z,100565.16
2022-12-28T15:01:49.553Z,100559.09
2022-12-28T15:04:37.136Z,100553.22
2022-12-28T15:07:07.910Z,100538.09
2022-12-28T15:09:36.022Z,100538.09
2022-12-28T15:12:12.729Z,100537.81
2022-12-28T15:14:40.769Z,100531.75
2022-12-28T15:17:09.202Z,100529.88
2022-12-28T15:19:37.561Z,100539.81
2022-12-28T15:22:06.968Z,100535.22
2022-12-28T15:24:35.147Z,100525.41
2022-12-28T15:27:03.315Z,100518.09
2022-12-28T15:30:03.878Z,100526.28
2022-12-28T15:32:19.608Z,100516.34
2022-12-28T15:34:47.434Z,100503.56
2022-12-28T15:37:16.708Z,100494.22
2022-12-28T15:39:44.544Z,100508.03
2022-12-28T15:42:12.534Z,100487.16
2022-12-28T15:44:40.312Z,100488.88
2022-12-28T15:47:08.237Z,100485.28
2022-12-28T15:49:36.070Z,100473.50
2022-12-28T15:52:03.878Z,100466.16
2022-12-28T15:54:33.125Z,100469.63
2022-12-28T15:57:00.957Z,100470.75
2022-12-28T15:59:29.091Z,100466.16
2022-12-28T16:01:57.293Z,100463.41
2022-12-28T16:04:25.360Z,100457.94
2022-12-28T16:06:53.184Z,100453.50
2022-12-28T16:09:21.234Z,100450.75
2022-12-28T16:11:55.100Z,100445.16
2022-12-28T16:14:23.624Z,100445.28
2022-12-28T16:16:52.371Z,100450.63
2022-12-28T16:19:20.501Z,100444.44
2022-12-28T16:21:50.340Z,100443.28
2022-12-28T16:24:18.589Z,100435.22
2022-12-28T16:26:46.696Z,100429.75
2022-12-28T16:29:15.939Z,100424.16
2022-12-28T16:31:43.879Z,100414.22
2022-12-28T16:34:13.970Z,100415.09
2022-12-28T16:36:42.335Z,100417.81
2022-12-28T16:39:14.123Z,100412.22
2022-12-28T16:41:42.206Z,100404.16
2022-12-28T16:44:16.368Z,100395.69
2022-12-28T16:46:44.353Z,100385.88
2022-12-28T16:49:12.466Z,100382.16
2022-12-28T16:51:41.596Z,100372.97
2022-12-28T16:54:09.658Z,100381.16
2022-12-28T16:56:37.546Z,100358.44
2022-12-28T16:59:05.341Z,100362.03
2022-12-28T17:01:34.718Z,100350.09
2022-12-28T17:04:04.477Z,100341.16
2022-12-28T17:06:32.703Z,100346.50
2022-12-28T17:09:02.012Z,100342.75
2022-12-28T17:11:30.064Z,100348.50
2022-12-28T17:14:01.608Z,100346.50
2022-12-28T17:16:29.764Z,100355.81
2022-12-28T17:19:00.361Z,100344.91
2022-12-28T17:21:28.386Z,100347.91
2022-12-28T17:23:56.295Z,100356.09
2022-12-28T17:26:24.179Z,100348.94
2022-12-28T17:28:52.183Z,100348.19
2022-12-28T17:31:22.437Z,100350.81
2022-12-28T17:33:53.701Z,100341.00
2022-12-28T17:36:23.340Z,100342.88
2022-12-28T17:38:51.540Z,100330.53
2022-12-28T17:41:21.684Z,100334.25
2022-12-28T17:43:50.816Z,100338.13
2022-12-28T17:46:19.513Z,100324.72
2022-12-28T17:48:47.641Z,100320.44
2022-12-28T17:51:16.379Z,100320.72
2022-12-28T17:53:45.658Z,100315.38
2022-12-28T17:56:15.166Z,100302.16
2022-12-28T17:58:44.578Z,100320.41
2022-12-28T18:01:13.115Z,100309.75
2022-12-28T18:03:41.326Z,100301.88
2022-12-28T18:06:09.304Z,100297.41
2022-12-28T18:08:37.097Z,100291.22
2022-12-28T18:11:08.591Z,100290.34
2022-12-28T18:13:36.573Z,100298.81
2022-12-28T18:16:05.762Z,100281.56
2022-12-28T18:18:33.726Z,100288.19
2022-12-28T18:21:04.250Z,100280.00
2022-12-28T18:23:32.547Z,100272.91
2022-12-28T18:26:03.392Z,100277.34
2022-12-28T18:28:32.958Z,100274.91
2022-12-28T18:31:02.324Z,100273.34
2022-12-28T18:33:31.333Z,100262.53
2022-12-28T18:35:59.505Z,100261.81
2022-12-28T18:38:27.387Z,100262.81
2022-12-28T18:40:58.274Z,100261.94
2022-12-28T18:43:26.592Z,100247.72
2022-12-28T18:45:57.563Z,100243.13
2022-12-28T18:48:25.906Z,100245.28
2022-12-28T18:50:55.192Z,100236.22
2022-12-28T18:53:24.057Z,100226.44
2022-12-28T18:55:58.938Z,100226.44
2022-12-28T18:58:27.229Z,100219.53
2022-12-28T19:01:03.983Z,100217.69
2022-12-28T19:03:32.133Z,100209.88
2022-12-28T19:06:03.089Z,100208.16
2022-12-28T19:08:31.949Z,100214.78
2022-12-28T19:11:00.169Z,100215.78
2022-12-28T19:13:28.648Z,100205.00
2022-12-28T19:15:56.557Z,100211.59
2022-12-28T19:18:25.820Z,100204.28
2022-12-28T19:20:57.830Z,100197.94
2022-12-28T19:23:26.699Z,100197.66
2022-12-28T19:25:59.621Z,100181.28
2022-12-28T19:28:27.842Z,100183.16
2022-12-28T19:30:59.605Z,100186.00
2022-12-28T19:33:33.785Z,100180.72
2022-12-28T19:36:01.802Z,100175.38
2022-12-28T19:38:29.651Z,100186.44
2022-12-28T19:40:58.018Z,100187.31
2022-12-28T19:43:25.904Z,100177.53
2022-12-28T19:45:53.690Z,100175.78
2022-12-28T19:48:21.535Z,100175.78
2022-12-28T19:50:50.709Z,100174.78
2022-12-28T19:53:18.579Z,100174.94
2022-12-28T19:55:46.472Z,100176.78
2022-12-28T19:58:14.305Z,100159.59
2022-12-28T20:00:42.124Z,100159.59
2022-12-28T20:03:10.292Z,100153.25
2022-12-28T20:05:38.357Z,100158.72
2022-12-28T20:08:07.772Z,100156.84
2022-12-28T20:10:35.739Z,100151.41
2022-12-28T20:13:03.671Z,100145.09
2022-12-28T20:15:31.493Z,100147.81
2022-12-28T20:17:59.377Z,100154.97
2022-12-28T20:20:32.960Z,100146.78
2022-12-28T20:23:04.249Z,100152.22
2022-12-28T20:25:33.478Z,100136.47
2022-12-28T20:28:01.341Z,100132.88
2022-12-28T20:30:29.394Z,100124.69
2022-12-28T20:32:57.444Z,100124.53
2022-12-28T20:35:26.513Z,100127.13
2022-12-28T20:37:54.526Z,100125.28
2022-12-28T20:40:22.309Z,100125.97
2022-12-28T20:43:08.726Z,100115.78
2022-12-28T20:45:36.712Z,100121.38
2022-12-28T20:48:04.869Z,100114.78
2022-12-28T20:50:32.755Z,100122.69
2022-12-28T20:53:00.578Z,100113.34
2022-12-28T20:55:28.649Z,100110.47
2022-12-28T20:57:58.026Z,100104.88
2022-12-28T21:00:25.962Z,100107.47
2022-12-28T21:02:53.919Z,100098.97
2022-12-28T21:05:21.792Z,100103.44
2022-12-28T21:07:49.693Z,100097.84
2022-12-28T21:10:18.140Z,100106.75
2022-12-28T21:12:46.027Z,100105.63
2022-12-28T21:15:15.445Z,100112.50
2022-12-28T21:17:43.512Z,100107.03
2022-12-28T21:20:12.312Z,100112.22
2022-12-28T21:22:40.236Z,100103.03
2022-12-28T21:25:11.190Z,100104.44
2022-12-28T21:27:39.124Z,100107.19
2022-12-28T21:30:08.543Z,100121.41
2022-12-28T21:32:37.727Z,100105.72
2022-12-28T21:35:06.560Z,100102.00
2022-12-28T21:37:37.186Z,100101.00
2022-12-28T21:40:08.112Z,100095.28
2022-12-28T21:42:36.691Z,100095.28
2022-12-28T21:45:05.017Z,100085.09
2022-12-28T21:47:34.418Z,100078.59
2022-12-28T21:50:05.070Z,100073.84
2022-12-28T21:52:34.454Z,100068.38
2022-12-28T21:55:23.267Z,100072.97
2022-12-28T21:57:51.505Z,100070.25
2022-12-28T22:00:33.557Z,100063.66
2022-12-28T22:03:18.890Z,100060.91
2022-12-28T22:06:03.774Z,100057.19
2022-12-28T22:08:49.911Z,100066.22
2022-12-28T22:11:35.728Z,100058.03
2022-12-28T22:14:04.120Z,100062.50
2022-12-28T22:16:32.814Z,100064.91
2022-12-28T22:19:02.747Z,100070.25
2022-12-28T22:21:32.989Z,100071.81
2022-12-28T22:24:00.808Z,100080.03
2022-12-28T22:26:28.648Z,100071.81
2022-12-28T22:28:56.526Z,100069.09
2022-12-28T22:31:24.427Z,100059.88
2022-12-28T22:33:53.384Z,100059.88
2022-12-28T22:36:21.561Z,100062.63
2022-12-28T22:38:50.770Z,100060.59
2022-12-28T22:41:18.581Z,100053.56
2022-12-28T22:43:50.261Z,100058.72
2022-12-28T22:46:18.603Z,100051.84
2022-12-28T22:48:46.784Z,100059.03
2022-12-28T22:51:16.663Z,100053.44
2022-12-28T22:53:44.794Z,100043.66
2022-12-28T22:56:19.562Z,100055.28
2022-12-28T22:58:47.696Z,100059.03
2022-12-28T23:01:17.785Z,100040.59
2022-12-28T23:03:47.575Z,100037.88
2022-12-28T23:06:18.337Z,100042.31
2022-12-28T23:08:47.148Z,100040.47
2022-12-28T23:11:35.333Z,100029.38
2022-12-28T23:14:17.987Z,100036.84
2022-12-28T23:16:45.903Z,100034.31
2022-12-28T23:19:31.401Z,100039.31
2022-12-28T23:22:17.130Z,100026.66
2022-12-28T23:25:02.829Z,100026.50
2022-12-28T23:27:35.597Z,100029.97
2022-12-28T23:30:03.519Z,100016.44
2022-12-28T23:32:31.416Z,100018.91
2022-12-28T23:34:59.279Z,100012.38
2022-12-28T23:37:27.356Z,100012.25
2022-12-28T23:39:55.320Z,99995.72
2022-12-28T23:42:23.425Z,99988.22
2022-12-28T23:44:52.946Z,99986.22
2022-12-28T23:47:21.376Z,99981.59
2022-12-28T23:49:49.216Z,99971.50
2022-12-28T23:52:19.658Z,99973.25
2022-12-28T23:54:51.891Z,99969.34
2022-12-28T23:57:19.773Z,99981.00
2022-12-28T23:59:47.975Z,99972.66
